createdAt,value
2022-09-17T11:02:26.924Z,7.00
2022-09-17T11:04:34.363Z,6.20
2022-09-17T11:06:18.292Z,6.80
2022-09-17T11:07:49.887Z,5.60
2022-09-17T11:09:33.622Z,5.60
2022-09-17T11:11:12.345Z,6.80
2022-09-17T11:12:53.838Z,6.00
2022-09-17T11:14:41.479Z,7.00
2022-09-17T11:16:15.091Z,6.20
2022-09-17T11:18:07.716Z,5.60
2022-09-17T11:19:46.823Z,5.40
2022-09-17T11:21:24.453Z,6.40
2022-09-17T11:23:28.190Z,3.20
2022-09-17T11:25:29.260Z,5.40
2022-09-17T11:29:46.364Z,3.20
2022-09-17T11:31:55.550Z,4.80
2022-09-17T11:33:33.411Z,5.40
2022-09-17T11:35:27.744Z,5.40
2022-09-17T11:37:18.011Z,6.00
2022-09-17T11:38:50.708Z,5.00
2022-09-17T11:40:37.207Z,4.60
2022-09-17T11:42:13.214Z,4.80
2022-09-17T11:43:58.047Z,5.60
2022-09-17T11:45:40.726Z,5.40
2022-09-17T11:47:24.016Z,4.00
2022-09-17T11:49:03.202Z,5.40
2022-09-17T11:50:42.321Z,3.40
2022-09-17T11:52:18.750Z,5.20
2022-09-17T11:54:08.933Z,5.00
2022-09-17T11:55:47.762Z,5.00
2022-09-17T11:57:20.779Z,4.00
2022-09-17T11:58:57.994Z,4.00
2022-09-17T12:00:30.204Z,6.00
2022-09-17T12:02:05.387Z,4.00
2022-09-17T12:03:41.454Z,4.60
2022-09-17T12:05:20.144Z,5.00
2022-09-17T12:06:58.092Z,4.00
2022-09-17T12:08:39.750Z,8.00
2022-09-17T12:10:41.683Z,5.40
2022-09-17T12:12:47.528Z,4.40
2022-09-17T12:14:39.773Z,7.00
2022-09-17T12:16:29.692Z,7.00
2022-09-17T12:18:37.136Z,4.00
2022-09-17T12:20:19.039Z,5.00
2022-09-17T12:22:19.557Z,5.80
2022-09-17T12:24:10.937Z,5.60
2022-09-17T12:26:00.827Z,3.20
2022-09-17T12:27:44.546Z,5.60
2022-09-17T12:29:43.974Z,6.00
2022-09-17T12:31:24.937Z,4.40
2022-09-17T12:33:06.767Z,6.00
2022-09-17T12:35:12.447Z,7.00
2022-09-17T12:36:58.347Z,5.40
2022-09-17T12:39:11.326Z,5.80
2022-09-17T12:40:42.939Z,4.00
2022-09-17T12:42:36.986Z,6.40
2022-09-17T12:44:36.077Z,5.00
2022-09-17T12:46:19.517Z,5.00
2022-09-17T12:48:29.239Z,4.00
2022-09-17T12:50:15.172Z,5.00
2022-09-17T12:51:59.432Z,6.80
2022-09-17T12:53:35.700Z,3.20
2022-09-17T12:55:28.329Z,2.00
2022-09-17T12:57:03.079Z,6.00
2022-09-17T12:58:56.597Z,6.20
2022-09-17T13:00:36.627Z,6.00
2022-09-17T13:02:37.645Z,5.60
2022-09-17T13:05:00.616Z,5.00
2022-09-17T13:06:59.915Z,4.00
2022-09-17T13:09:09.333Z,6.20
2022-09-17T13:11:11.479Z,5.60
2022-09-17T13:12:55.032Z,8.80
2022-09-17T13:14:52.202Z,7.40
2022-09-17T13:16:35.885Z,7.20
2022-09-17T13:18:48.852Z,7.00
2022-09-17T13:20:32.634Z,5.00
2022-09-17T13:22:18.140Z,6.00
2022-09-17T13:23:51.405Z,6.00
2022-09-17T13:25:23.379Z,6.00
2022-09-17T13:26:55.155Z,6.60
2022-09-17T13:28:42.155Z,7.60
2022-09-17T13:30:23.001Z,7.60
2022-09-17T13:31:54.852Z,8.20
2022-09-17T13:33:50.362Z,9.60
2022-09-17T13:35:21.999Z,11.00
2022-09-17T13:37:00.854Z,14.00
2022-09-17T13:38:40.688Z,13.60
2022-09-17T13:40:22.577Z,15.40
2022-09-17T13:42:04.952Z,13.00
2022-09-17T13:43:36.646Z,19.00
2022-09-17T13:45:17.624Z,13.20
2022-09-17T13:46:49.395Z,15.20
2022-09-17T13:48:22.052Z,16.20
2022-09-17T13:49:57.584Z,14.20
2022-09-17T13:51:32.212Z,14.20
2022-09-17T13:53:13.059Z,10.60
2022-09-17T13:54:45.022Z,13.00
2022-09-17T13:56:36.772Z,11.00
2022-09-17T13:58:23.515Z,11.20
2022-09-17T13:59:57.356Z,10.20
2022-09-17T14:01:53.860Z,11.80
2022-09-17T14:03:31.484Z,10.80
2022-09-17T14:05:25.795Z,11.20
2022-09-17T14:06:59.658Z,10.40
2022-09-17T14:08:44.102Z,12.80
2022-09-17T14:10:15.744Z,15.80
2022-09-17T14:11:47.413Z,22.60
2022-09-17T14:13:49.273Z,24.40
2022-09-17T14:15:39.544Z,34.20
2022-09-17T14:17:11.503Z,32.60
2022-09-17T14:18:43.327Z,35.20
2022-09-17T14:20:14.979Z,38.20
2022-09-17T14:22:13.567Z,36.20
2022-09-17T14:23:46.884Z,38.20
2022-09-17T14:25:18.597Z,39.80
2022-09-17T14:27:13.240Z,45.25
2022-09-17T14:29:08.194Z,47.00
2022-09-17T14:30:39.927Z,50.75
2022-09-17T14:32:16.046Z,47.00
2022-09-17T14:33:47.843Z,48.75
2022-09-17T14:35:37.924Z,47.75
2022-09-17T14:37:13.703Z,49.00
2022-09-17T14:38:55.271Z,45.75
2022-09-17T14:40:27.933Z,53.00
2022-09-17T14:42:01.712Z,51.75
2022-09-17T14:43:50.206Z,42.50
2022-09-17T14:45:23.804Z,43.00
2022-09-17T14:46:56.791Z,48.00
2022-09-17T14:48:32.764Z,48.50
2022-09-17T14:50:22.079Z,42.25
2022-09-17T14:51:57.981Z,48.75
2022-09-17T14:53:29.657Z,47.50
2022-09-17T14:55:21.533Z,41.50
2022-09-17T14:57:09.156Z,43.80
2022-09-17T14:58:42.485Z,39.40
2022-09-17T15:00:28.592Z,47.50
2022-09-17T15:02:00.322Z,47.25
2022-09-17T15:03:32.020Z,45.00
2022-09-17T15:05:22.306Z,43.25
2022-09-17T15:07:06.193Z,41.60
2022-09-17T15:08:37.845Z,49.25
2022-09-17T15:10:13.679Z,70.00
2022-09-17T15:11:48.270Z,72.50
2022-09-17T15:13:32.612Z,67.25
2022-09-17T15:15:04.752Z,67.25
2022-09-17T15:16:36.817Z,67.50
2022-09-17T15:18:13.875Z,62.00
2022-09-17T15:19:50.270Z,58.00
2022-09-17T15:21:41.944Z,67.00
2022-09-17T15:23:24.791Z,65.50
2022-09-17T15:25:06.446Z,57.50
2022-09-17T15:26:39.131Z,52.50
2022-09-17T15:28:24.394Z,57.75
2022-09-17T15:30:02.320Z,60.75
2022-09-17T15:31:34.144Z,58.00
2022-09-17T15:33:05.914Z,59.75
2022-09-17T15:34:37.911Z,61.50
2022-09-17T15:36:27.435Z,62.25
2022-09-17T15:39:59.246Z,59.75
2022-09-17T15:41:32.769Z,56.25
2022-09-17T15:43:28.685Z,55.75
2022-09-17T15:45:20.066Z,56.00
2022-09-17T15:46:52.889Z,60.50
2022-09-17T15:48:27.451Z,52.75
2022-09-17T15:50:34.878Z,71.00
2022-09-17T15:52:31.281Z,78.80
2022-09-17T15:54:06.751Z,83.75
2022-09-17T15:55:43.567Z,83.25
2022-09-17T15:57:15.258Z,92.25
2022-09-17T15:58:46.950Z,92.75
2022-09-17T16:00:20.137Z,87.00
2022-09-17T16:01:53.482Z,80.60
2022-09-17T16:03:40.602Z,82.20
2022-09-17T16:05:18.274Z,79.75
2022-09-17T16:06:58.571Z,85.25
2022-09-17T16:08:34.116Z,83.50
2022-09-17T16:10:06.041Z,88.50
2022-09-17T16:11:37.741Z,86.20
2022-09-17T16:13:09.417Z,79.20
2022-09-17T16:14:45.360Z,82.25
2022-09-17T16:16:18.332Z,79.60
2022-09-17T16:17:50.191Z,84.50
2022-09-17T16:19:22.701Z,75.40
2022-09-17T16:20:54.544Z,78.25
2022-09-17T16:22:26.593Z,87.25
2022-09-17T16:23:58.668Z,95.00
2022-09-17T16:25:30.553Z,90.00
2022-09-17T16:27:02.620Z,92.00
2022-09-17T16:28:34.521Z,106.75
2022-09-17T16:30:09.382Z,96.25
2022-09-17T16:31:41.164Z,97.75
2022-09-17T16:33:13.437Z,90.00
2022-09-17T16:34:45.141Z,102.00
2022-09-17T16:36:17.375Z,76.00
2022-09-17T16:37:55.895Z,86.25
2022-09-17T16:39:27.537Z,83.00
2022-09-17T16:40:59.306Z,98.00
2022-09-17T16:42:31.918Z,87.50
2022-09-17T16:44:03.567Z,92.00
2022-09-17T16:45:35.549Z,91.75
2022-09-17T16:47:08.039Z,77.00
2022-09-17T16:48:41.189Z,75.40
2022-09-17T16:50:14.535Z,62.25
2022-09-17T16:51:46.287Z,60.75
2022-09-17T16:53:17.966Z,60.75
2022-09-17T16:54:49.758Z,62.00
2022-09-17T16:56:21.598Z,57.25
2022-09-17T16:57:53.857Z,54.00
2022-09-17T16:59:25.602Z,56.00
2022-09-17T17:00:57.825Z,51.25
2022-09-17T17:02:29.591Z,53.75
2022-09-17T17:04:01.786Z,51.50
2022-09-17T17:05:36.349Z,50.00
2022-09-17T17:07:08.117Z,56.25
2022-09-17T17:08:39.904Z,49.75
2022-09-17T17:10:11.643Z,57.00
2022-09-17T17:11:43.370Z,59.75
2022-09-17T17:13:15.182Z,89.00
2022-09-17T17:14:50.066Z,83.50
2022-09-17T17:16:21.939Z,82.00
2022-09-17T17:17:53.651Z,70.60
2022-09-17T17:19:26.165Z,57.25
2022-09-17T17:21:07.038Z,59.25
2022-09-17T17:22:39.510Z,50.75
2022-09-17T17:24:11.744Z,53.50
2022-09-17T17:25:43.641Z,56.50
2022-09-17T17:27:15.472Z,63.00
2022-09-17T17:28:48.879Z,71.00
2022-09-17T17:30:20.796Z,71.75
2022-09-17T17:31:52.787Z,66.00
2022-09-17T17:33:24.507Z,66.50
2022-09-17T17:34:56.267Z,69.25
2022-09-17T17:36:28.119Z,70.25
2022-09-17T17:37:59.781Z,76.00
2022-09-17T17:39:31.773Z,69.00
2022-09-17T17:41:13.005Z,128.50
2022-09-17T17:42:47.369Z,137.00
2022-09-17T17:44:19.271Z,108.50
2022-09-17T17:45:51.105Z,95.50
2022-09-17T17:47:23.021Z,118.25
2022-09-17T17:48:54.736Z,124.50
2022-09-17T17:50:26.436Z,113.00
2022-09-17T17:51:58.156Z,116.25
2022-09-17T17:53:29.901Z,103.25
2022-09-17T17:55:01.586Z,112.00
2022-09-17T17:56:33.282Z,106.00
2022-09-17T17:58:04.943Z,102.50
2022-09-17T17:59:36.641Z,102.00
2022-09-17T18:01:18.511Z,106.25
2022-09-17T18:02:51.265Z,95.50
2022-09-17T18:04:23.027Z,100.75
2022-09-17T18:05:57.915Z,105.00
2022-09-17T18:07:29.678Z,103.75
2022-09-17T18:09:01.535Z,102.75
2022-09-17T18:10:33.252Z,103.00
2022-09-17T18:12:05.195Z,93.00
2022-09-17T18:13:37.467Z,98.50
2022-09-17T18:15:09.541Z,94.00
2022-09-17T18:16:41.239Z,98.50
2022-09-17T18:18:13.016Z,100.50
2022-09-17T18:19:44.769Z,95.75
2022-09-17T18:21:18.114Z,109.75
2022-09-17T18:22:49.900Z,114.75
2022-09-17T18:24:21.703Z,106.50
2022-09-17T18:25:57.086Z,113.25
2022-09-17T18:27:28.732Z,121.75
2022-09-17T18:29:04.337Z,105.00
2022-09-17T18:30:39.016Z,111.50
2022-09-17T18:32:10.764Z,99.25
2022-09-17T18:33:42.467Z,106.25
2022-09-17T18:35:14.263Z,88.25
2022-09-17T18:36:50.310Z,104.50
2022-09-17T18:38:25.606Z,102.50
2022-09-17T18:39:58.908Z,113.75
2022-09-17T18:41:32.066Z,113.25
2022-09-17T18:43:03.740Z,102.75
2022-09-17T18:44:35.471Z,103.25
2022-09-17T18:46:07.230Z,133.75
2022-09-17T18:47:38.961Z,152.67
2022-09-17T18:49:10.706Z,149.33
2022-09-17T18:50:42.404Z,142.00
2022-09-17T18:52:14.115Z,138.00
2022-09-17T18:53:50.850Z,116.50
2022-09-17T18:55:24.184Z,116.50
2022-09-17T18:56:55.852Z,128.25
2022-09-17T18:58:27.495Z,94.25
2022-09-17T19:00:00.141Z,124.50
2022-09-17T19:01:31.953Z,109.50
2022-09-17T19:03:03.779Z,104.75
2022-09-17T19:04:36.071Z,105.75
2022-09-17T19:06:10.100Z,103.00
2022-09-17T19:07:45.813Z,107.25
2022-09-17T19:09:17.564Z,106.25
2022-09-17T19:10:52.372Z,106.00
2022-09-17T19:12:24.016Z,118.25
2022-09-17T19:13:55.774Z,142.33
2022-09-17T19:15:27.661Z,149.33
2022-09-17T19:17:01.650Z,112.00
2022-09-17T19:18:35.158Z,129.00
2022-09-17T19:20:07.324Z,122.00
2022-09-17T19:21:39.473Z,130.25
2022-09-17T19:23:11.144Z,121.50
2022-09-17T19:24:42.876Z,112.00
2022-09-17T19:26:16.309Z,122.00
2022-09-17T19:27:49.402Z,121.00
2022-09-17T19:29:21.094Z,124.00
2022-09-17T19:30:52.857Z,111.00
2022-09-17T19:32:24.624Z,115.50
2022-09-17T19:33:56.523Z,117.75
2022-09-17T19:35:28.794Z,134.00
2022-09-17T19:37:00.774Z,128.50
2022-09-17T19:38:32.698Z,134.00
2022-09-17T19:40:05.817Z,134.00
2022-09-17T19:41:37.757Z,134.00
2022-09-17T19:43:09.419Z,122.67
2022-09-17T19:44:41.496Z,134.00
2022-09-17T19:46:14.937Z,128.00
2022-09-17T19:47:46.803Z,141.00
2022-09-17T19:49:19.097Z,135.00
2022-09-17T19:50:56.995Z,136.00
2022-09-17T19:52:28.739Z,132.00
2022-09-17T19:54:00.489Z,132.00
2022-09-17T19:55:32.138Z,135.33
2022-09-17T19:57:04.160Z,136.67
2022-09-17T19:58:35.858Z,128.00
2022-09-17T20:00:08.452Z,130.75
2022-09-17T20:01:44.994Z,149.33
2022-09-17T20:03:22.431Z,173.50
2022-09-17T20:04:54.145Z,136.67
2022-09-17T20:06:25.809Z,152.33
2022-09-17T20:07:58.756Z,143.67
2022-09-17T20:09:30.844Z,143.00
2022-09-17T20:11:09.329Z,136.33
2022-09-17T20:12:41.013Z,173.50
2022-09-17T20:14:12.769Z,125.33
2022-09-17T20:15:44.660Z,143.00
2022-09-17T20:17:16.443Z,130.67
2022-09-17T20:18:48.554Z,139.33
2022-09-17T20:20:20.313Z,149.67
2022-09-17T20:21:52.731Z,157.00
2022-09-17T20:23:25.270Z,149.33
2022-09-17T20:24:57.020Z,136.67
2022-09-17T20:26:28.747Z,139.33
2022-09-17T20:28:01.469Z,139.67
2022-09-17T20:29:33.270Z,134.33
2022-09-17T20:31:06.744Z,130.75
2022-09-17T20:32:38.466Z,127.75
2022-09-17T20:34:10.133Z,121.25
2022-09-17T20:35:42.105Z,125.00
2022-09-17T20:37:14.038Z,120.00
2022-09-17T20:40:38.754Z,115.25
2022-09-17T20:42:10.573Z,115.25
2022-09-17T20:43:47.506Z,124.75
2022-09-17T20:45:19.121Z,143.33
2022-09-17T20:46:50.935Z,122.00
2022-09-17T20:48:22.751Z,143.33
2022-09-17T20:49:55.517Z,123.50
2022-09-17T20:51:28.483Z,122.25
2022-09-17T20:53:00.419Z,125.75
2022-09-17T20:54:32.095Z,119.75
2022-09-17T20:56:06.665Z,123.00
2022-09-17T20:57:38.504Z,115.25
2022-09-17T20:59:18.610Z,112.00
2022-09-17T21:00:50.469Z,108.75
2022-09-17T21:02:22.376Z,112.25
2022-09-17T21:03:54.302Z,111.25
2022-09-17T21:05:25.999Z,110.50
2022-09-17T21:06:57.818Z,106.00
2022-09-17T21:08:29.538Z,99.00
2022-09-17T21:10:01.401Z,98.00
2022-09-17T21:11:33.968Z,106.00
2022-09-17T21:13:05.645Z,98.75
2022-09-17T21:14:37.402Z,106.75
2022-09-17T21:16:09.284Z,111.25
2022-09-17T21:17:42.249Z,121.75
2022-09-17T21:19:15.857Z,123.50
2022-09-17T21:20:47.528Z,118.00
2022-09-17T21:22:19.498Z,120.75
2022-09-17T21:23:52.595Z,120.25
2022-09-17T21:25:24.344Z,123.00
2022-09-17T21:26:56.139Z,98.00
2022-09-17T21:28:29.539Z,111.50
2022-09-17T21:30:02.599Z,102.50
2022-09-17T21:31:36.679Z,101.50
2022-09-17T21:33:08.544Z,100.00
2022-09-17T21:34:40.368Z,103.50
2022-09-17T21:36:13.921Z,108.50
2022-09-17T21:37:45.590Z,119.25
2022-09-17T21:39:17.581Z,118.00
2022-09-17T21:40:56.928Z,122.00
2022-09-17T21:42:28.652Z,108.75
2022-09-17T21:44:00.431Z,114.00
2022-09-17T21:45:32.618Z,112.25
2022-09-17T21:47:05.419Z,119.00
2022-09-17T21:48:45.987Z,107.50
2022-09-17T21:50:17.686Z,108.75
2022-09-17T21:51:49.691Z,109.25
2022-09-17T21:53:21.424Z,118.25
2022-09-17T21:54:53.045Z,117.75
2022-09-17T21:56:24.923Z,123.25
2022-09-17T21:57:56.555Z,111.50
2022-09-17T21:59:28.364Z,115.25
2022-09-17T22:01:19.643Z,124.25
2022-09-17T22:02:51.359Z,114.75
2022-09-17T22:04:23.026Z,122.25
2022-09-17T22:05:54.727Z,113.75
2022-09-17T22:07:26.628Z,120.75
2022-09-17T22:08:59.019Z,125.25
2022-09-17T22:10:30.718Z,116.75
2022-09-17T22:12:04.930Z,126.25
2022-09-17T22:13:36.793Z,120.00
2022-09-17T22:15:10.211Z,119.75
2022-09-17T22:16:43.573Z,107.00
2022-09-17T22:18:15.245Z,125.50
2022-09-17T22:19:46.904Z,113.00
2022-09-17T22:21:25.994Z,105.00
2022-09-17T22:22:57.721Z,116.75
2022-09-17T22:24:29.426Z,104.00
2022-09-17T22:26:04.607Z,102.50
2022-09-17T22:27:36.389Z,103.75
2022-09-17T22:29:09.579Z,104.50
2022-09-17T22:30:41.525Z,98.25
2022-09-17T22:32:13.305Z,96.00
2022-09-17T22:33:46.574Z,93.75
